| time (UTC) | temp C | wind direction | speed KPH | gust KPH | rain 1hr cm | rain 24hr cm | rain mn cm | humidity % | barometer mb |
| 20260510114559 | 12 | 51 | 0.0 | 0.0 | 0.00 | 0.00 | 0.00 | 100 | 993.1 |
| 20260510113112 | 12 | 330 | 0.0 | 0.0 | 0.00 | 0.00 | 0.00 | 100 | 992.9 |
| 20260510111559 | 12 | 359 | 0.0 | 0.0 | 0.00 | 0.00 | 0.00 | 100 | 992.7 |
| 20260510110059 | 12 | 330 | 0.0 | 0.0 | 0.00 | 0.00 | 0.00 | 99 | 992.4 |
| 20260510110001 | 12 | 330 | 0.0 | 0.0 | 0.00 | 0.00 | 0.00 | 99 | 992.4 |
| 20260510104559 | 12 | 330 | 0.0 | 0.0 | 0.00 | 0.00 | 0.00 | 99 | 992.2 |
| 20260510103100 | 12 | 330 | 0.0 | 0.0 | 0.00 | 0.00 | 0.00 | 99 | 992.1 |
| 20260510101602 | 12 | 330 | 0.0 | 0.0 | 0.00 | 0.00 | 0.00 | 99 | 992.0 |
| 20260510100107 | 12 | 330 | 0.0 | 0.0 | 0.00 | 0.00 | 0.00 | 99 | 991.8 |
| 20260510100002 | 12 | 330 | 0.0 | 0.0 | 0.00 | 0.00 | 0.00 | 99 | 991.8 |
| 20260510094559 | 12 | 330 | 0.0 | 0.0 | 0.00 | 0.00 | 0.00 | 99 | 991.6 |
| 20260510093100 | 12 | 330 | 0.0 | 0.0 | 0.00 | 0.00 | 0.00 | 98 | 991.4 |
| 20260510091601 | 12 | 330 | 0.0 | 0.0 | 0.00 | 0.00 | 0.00 | 99 | 991.4 |
| 20260510090002 | 12 | 330 | 0.0 | 0.0 | 0.00 | 0.00 | 0.00 | 99 | 991.4 |
| 20260510084601 | 12 | 234 | 0.0 | 0.0 | 0.00 | 0.00 | 0.00 | 98 | 991.4 |
| 20260510083102 | 13 | 244 | 0.0 | 0.0 | 0.00 | 0.00 | 0.00 | 98 | 991.4 |
| 20260510081559 | 13 | 244 | 0.0 | 0.0 | 0.00 | 0.00 | 0.00 | 98 | 991.3 |
| 20260510080105 | 13 | 244 | 0.0 | 0.0 | 0.00 | 0.00 | 0.00 | 98 | 991.1 |
| 20260510080001 | 13 | 244 | 0.0 | 0.0 | 0.00 | 0.00 | 0.00 | 98 | 991.1 |
| 20260510074559 | 13 | 244 | 0.0 | 0.0 | 0.00 | 0.00 | 0.00 | 98 | 991.0 |
| 20260510073116 | 13 | 244 | 0.0 | 0.0 | 0.00 | 0.00 | 0.00 | 98 | 990.9 |
| 20260510071559 | 13 | 244 | 0.0 | 0.0 | 0.00 | 0.00 | 0.00 | 98 | 990.9 |
| 20260510070106 | 13 | 244 | 0.0 | 0.0 | 0.00 | 0.00 | 0.00 | 98 | 990.8 |
| 20260510064636 | 14 | 244 | 0.0 | 0.0 | 0.00 | 0.00 | 0.00 | 97 | 991.1 |
| 20260510063058 | 14 | 244 | 0.0 | 0.0 | 0.00 | 0.00 | 0.00 | 97 | 991.0 |
| 20260510061558 | 14 | 244 | 0.0 | 0.0 | 0.00 | 0.00 | 0.00 | 97 | 990.9 |
| 20260510060058 | 15 | 244 | 0.0 | 0.0 | 0.00 | 0.00 | 0.00 | 97 | 991.0 |
| 20260510060007 | 15 | 244 | 0.0 | 0.0 | 0.00 | 0.00 | 0.00 | 97 | 991.0 |
| 20260510054501 | 15 | 244 | 0.0 | 0.0 | 0.00 | 0.00 | 0.00 | 97 | 990.9 |
| 20260510053003 | 15 | 244 | 0.0 | 0.0 | 0.00 | 0.00 | 0.00 | 96 | 991.1 |
| 20260510051502 | 15 | 244 | 0.0 | 0.0 | 0.00 | 0.00 | 0.00 | 96 | 991.1 |
| 20260510050006 | 16 | 244 | 0.0 | 0.0 | 0.00 | 0.00 | 0.00 | 95 | 991.0 |
| 20260510044501 | 16 | 244 | 0.0 | 0.0 | 0.00 | 0.00 | 0.00 | 96 | 990.9 |
| 20260510043002 | 16 | 244 | 0.0 | 3.2 | 0.00 | 0.00 | 0.00 | 96 | 991.0 |
| 20260510041503 | 16 | 234 | 0.0 | 4.8 | 0.00 | 0.00 | 0.00 | 96 | 991.1 |
| 20260510040002 | 16 | 227 | 1.6 | 6.4 | 0.00 | 0.00 | 0.00 | 95 | 991.2 |
| 20260510034618 | 16 | 219 | 0.0 | 3.2 | 0.00 | 0.00 | 0.00 | 95 | 991.3 |
| 20260510033106 | 16 | 258 | 0.0 | 1.6 | 0.00 | 0.00 | 0.00 | 94 | 991.1 |
| 20260510031601 | 16 | 268 | 0.0 | 0.0 | 0.00 | 0.00 | 0.00 | 94 | 991.1 |
| 20260510030110 | 17 | 223 | 0.0 | 0.0 | 0.00 | 0.00 | 0.00 | 93 | 991.1 |
| 20260510030003 | 17 | 223 | 0.0 | 0.0 | 0.00 | 0.00 | 0.00 | 93 | 991.1 |
| 20260510024602 | 17 | 223 | 0.0 | 4.8 | 0.00 | 0.00 | 0.00 | 93 | 990.9 |
| 20260510023100 | 17 | 255 | 0.0 | 0.0 | 0.00 | 0.00 | 0.00 | 92 | 990.8 |
| 20260510021605 | 17 | 255 | 0.0 | 1.6 | 0.00 | 0.00 | 0.00 | 91 | 990.5 |
| 20260510020100 | 18 | 274 | 0.0 | 0.0 | 0.00 | 0.00 | 0.00 | 89 | 990.2 |
| 20260510020003 | 18 | 274 | 0.0 | 0.0 | 0.00 | 0.00 | 0.00 | 89 | 990.2 |
| 20260510014607 | 18 | 274 | 0.0 | 0.0 | 0.00 | 0.00 | 0.00 | 89 | 989.7 |
| 20260510013135 | 18 | 274 | 0.0 | 0.0 | 0.00 | 0.00 | 0.00 | 86 | 989.5 |
| 20260510011600 | 20 | 274 | 0.0 | 0.0 | 0.00 | 0.00 | 0.00 | 85 | 989.2 |
| 20260510010059 | 20 | 274 | 0.0 | 0.0 | 0.00 | 0.00 | 0.00 | 83 | 988.9 |
| 20260510010002 | 20 | 274 | 0.0 | 0.0 | 0.00 | 0.00 | 0.00 | 83 | 988.9 |
| 20260510004600 | 21 | 274 | 0.0 | 0.0 | 0.00 | 0.00 | 0.00 | 82 | 988.6 |
| 20260510003107 | 22 | 274 | 0.0 | 0.0 | 0.00 | 0.00 | 0.00 | 79 | 988.5 |
| 20260510001600 | 22 | 274 | 0.0 | 0.0 | 0.00 | 0.00 | 0.00 | 77 | 988.4 |
| 20260510000127 | 22 | 274 | 0.0 | 4.8 | 0.00 | 0.00 | 0.00 | 76 | 988.4 |
| 20260510000002 | 22 | 274 | 0.0 | 4.8 | 0.00 | 0.00 | 0.00 | 76 | 988.4 |
| 20260509234700 | 23 | 266 | 0.0 | 0.0 | 0.00 | 0.00 | 0.00 | 74 | 988.1 |
| 20260509233100 | 23 | 276 | 1.6 | 4.8 | 0.00 | 0.00 | 0.00 | 73 | 988.2 |
| 20260509231623 | 24 | 274 | 1.6 | 4.8 | 0.00 | 0.00 | 0.00 | 73 | 988.3 |
| 20260509230109 | 24 | 265 | 0.0 | 3.2 | 0.00 | 0.00 | 0.00 | 74 | 988.1 |
| 20260509230003 | 24 | 265 | 0.0 | 3.2 | 0.00 | 0.00 | 0.00 | 73 | 988.1 |
| 20260509224600 | 24 | 256 | 0.0 | 3.2 | 0.00 | 0.00 | 0.00 | 69 | 988.1 |
| 20260509223111 | 25 | 274 | 0.0 | 1.6 | 0.00 | 0.00 | 0.00 | 69 | 987.9 |
| 20260509221626 | 25 | 218 | 0.0 | 4.8 | 0.00 | 0.00 | 0.00 | 65 | 987.9 |
| 20260509220002 | 25 | 275 | 3.2 | 11.3 | 0.00 | 0.00 | 0.00 | 60 | 987.6 |
| 20260509214604 | 26 | 294 | 6.4 | 14.5 | 0.00 | 0.00 | 0.00 | 59 | 987.6 |
| 20260509213100 | 26 | 268 | 1.6 | 11.3 | 0.00 | 0.00 | 0.00 | 61 | 987.5 |
| 20260509211606 | 26 | 279 | 4.8 | 16.1 | 0.00 | 0.00 | 0.00 | 60 | 987.7 |
| 20260509210101 | 26 | 304 | 1.6 | 12.9 | 0.00 | 0.00 | 0.00 | 59 | 987.8 |
| 20260509210001 | 26 | 330 | 3.2 | 12.9 | 0.00 | 0.00 | 0.00 | 61 | 987.8 |
| 20260509204603 | 26 | 233 | 4.8 | 9.7 | 0.00 | 0.00 | 0.00 | 57 | 987.9 |
| 20260509203100 | 26 | 267 | 4.8 | 12.9 | 0.00 | 0.00 | 0.00 | 56 | 988.1 |
| 20260509201600 | 26 | 307 | 6.4 | 16.1 | 0.00 | 0.00 | 0.00 | 59 | 988.2 |
| 20260509200112 | 26 | 260 | 1.6 | 8.0 | 0.00 | 0.00 | 0.00 | 58 | 988.1 |
| 20260509200003 | 26 | 253 | 0.0 | 8.0 | 0.00 | 0.00 | 0.00 | 58 | 988.1 |
| 20260509194559 | 26 | 222 | 11.3 | 17.7 | 0.00 | 0.00 | 0.00 | 56 | 988.4 |
| 20260509193103 | 26 | 308 | 1.6 | 16.1 | 0.00 | 0.00 | 0.00 | 60 | 988.2 |
| 20260509193002 | 26 | 282 | 1.6 | 16.1 | 0.00 | 0.00 | 0.00 | 58 | 988.3 |
| 20260509191604 | 26 | 311 | 6.4 | 16.1 | 0.00 | 0.00 | 0.00 | 59 | 988.4 |
| 20260509190100 | 25 | 93 | 1.6 | 16.1 | 0.00 | 0.00 | 0.00 | 60 | 988.5 |
| 20260509190002 | 25 | 241 | 4.8 | 16.1 | 0.00 | 0.00 | 0.00 | 61 | 988.5 |
| 20260509184603 | 25 | 159 | 1.6 | 11.3 | 0.00 | 0.00 | 0.00 | 67 | 988.7 |
| 20260509183108 | 25 | 296 | 9.7 | 17.7 | 0.00 | 0.00 | 0.00 | 62 | 988.8 |
| 20260509181600 | 25 | 254 | 3.2 | 11.3 | 0.00 | 0.00 | 0.00 | 65 | 988.9 |
| 20260509180101 | 25 | 273 | 6.4 | 16.1 | 0.00 | 0.00 | 0.00 | 63 | 988.8 |
| 20260509180006 | 25 | 243 | 1.6 | 16.1 | 0.00 | 0.00 | 0.00 | 63 | 988.8 |
| 20260509174600 | 24 | 293 | 6.4 | 14.5 | 0.00 | 0.00 | 0.00 | 66 | 988.8 |
| 20260509173104 | 23 | 127 | 3.2 | 17.7 | 0.00 | 0.00 | 0.00 | 69 | 988.9 |
| 20260509171600 | 23 | 144 | 4.8 | 14.5 | 0.00 | 0.00 | 0.00 | 71 | 988.8 |
| 20260509170100 | 22 | 301 | 6.4 | 12.9 | 0.00 | 0.00 | 0.00 | 73 | 989.1 |
| 20260509170002 | 22 | 244 | 4.8 | 12.9 | 0.00 | 0.00 | 0.00 | 75 | 989.1 |
| 20260509164602 | 22 | 117 | 3.2 | 16.1 | 0.00 | 0.00 | 0.00 | 74 | 989.2 |
| 20260509163105 | 22 | 120 | 8.0 | 17.7 | 0.00 | 0.00 | 0.00 | 77 | 989.3 |
| 20260509161604 | 21 | 228 | 4.8 | 12.9 | 0.00 | 0.00 | 0.00 | 77 | 989.3 |
| 20260509160059 | 21 | 240 | 3.2 | 19.3 | 0.00 | 0.00 | 0.00 | 77 | 989.4 |
| 20260509160002 | 21 | 209 | 3.2 | 19.3 | 0.00 | 0.00 | 0.00 | 78 | 989.4 |
| 20260509154606 | 20 | 179 | 3.2 | 11.3 | 0.00 | 0.00 | 0.00 | 81 | 989.2 |
| 20260509153059 | 20 | 233 | 3.2 | 11.3 | 0.00 | 0.00 | 0.00 | 82 | 989.1 |
| 20260509151601 | 18 | 162 | 3.2 | 12.9 | 0.00 | 0.00 | 0.00 | 87 | 989.0 |
| 20260509150104 | 17 | 201 | 4.8 | 12.9 | 0.00 | 0.00 | 0.00 | 91 | 989.3 |
| 20260509150008 | 17 | 166 | 3.2 | 9.7 | 0.00 | 0.00 | 0.00 | 90 | 989.3 |
| 20260509144600 | 17 | 243 | 3.2 | 14.5 | 0.00 | 0.00 | 0.00 | 92 | 989.2 |
| 20260509143103 | 16 | 212 | 1.6 | 9.7 | 0.00 | 0.00 | 0.00 | 95 | 989.4 |
| 20260509141602 | 16 | 263 | 0.0 | 12.9 | 0.00 | 0.00 | 0.00 | 96 | 989.2 |
| 20260509140107 | 15 | 224 | 1.6 | 11.3 | 0.00 | 0.00 | 0.00 | 98 | 989.2 |
| 20260509140002 | 15 | 165 | 3.2 | 11.3 | 0.00 | 0.00 | 0.00 | 98 | 989.2 |
| 20260509134559 | 15 | 191 | 1.6 | 8.0 | 0.00 | 0.00 | 0.00 | 98 | 989.0 |
| 20260509133100 | 15 | 271 | 4.8 | 12.9 | 0.00 | 0.00 | 0.00 | 99 | 988.8 |
| 20260509131559 | 15 | 233 | 8.0 | 16.1 | 0.00 | 0.00 | 0.00 | 99 | 988.7 |
| 20260509130059 | 14 | 211 | 1.6 | 12.9 | 0.00 | 0.00 | 0.00 | 99 | 988.7 |
| 20260509130001 | 14 | 158 | 0.0 | 12.9 | 0.00 | 0.00 | 0.00 | 99 | 988.7 |
| 20260509124558 | 13 | 197 | 1.6 | 12.9 | 0.00 | 0.00 | 0.00 | 99 | 988.7 |
| 20260509123119 | 13 | 235 | 0.0 | 12.9 | 0.00 | 0.00 | 0.00 | 99 | 988.8 |
| 20260509121601 | 13 | 123 | 1.6 | 11.3 | 0.00 | 0.00 | 0.00 | 100 | 988.8 |
| 20260509120059 | 13 | 201 | 1.6 | 9.7 | 0.00 | 0.00 | 0.00 | 100 | 988.8 |
| 20260509120001 | 12 | 176 | 0.0 | 9.7 | 0.00 | 0.00 | 0.00 | 100 | 988.8 |